createdAt,value
2022-08-25T00:04:35.242Z,2.60
2022-08-25T00:09:38.503Z,2.65
2022-08-25T00:14:40.726Z,2.97
2022-08-25T00:19:42.373Z,2.75
2022-08-25T00:24:43.881Z,3.17
2022-08-25T00:29:45.610Z,2.85
2022-08-25T00:34:47.124Z,3.10
2022-08-25T00:39:48.763Z,3.03
2022-08-25T00:44:50.477Z,2.95
2022-08-25T00:49:56.793Z,2.90
2022-08-25T00:55:17.066Z,3.17
2022-08-25T01:00:33.222Z,3.13
2022-08-25T01:05:35.640Z,3.20
2022-08-25T01:10:41.259Z,2.78
2022-08-25T01:15:42.912Z,2.90
2022-08-25T01:20:49.136Z,3.00
2022-08-25T01:26:01.639Z,2.83
2022-08-25T01:31:23.744Z,2.88
2022-08-25T01:36:33.090Z,2.78
2022-08-25T01:41:34.597Z,3.30
2022-08-25T01:46:36.391Z,3.03
2022-08-25T01:51:43.970Z,3.15
2022-08-25T01:56:52.854Z,3.20
2022-08-25T02:02:00.171Z,3.13
2022-08-25T02:07:06.654Z,3.15
2022-08-25T02:12:11.842Z,3.17
2022-08-25T02:17:43.973Z,3.53
2022-08-25T02:22:53.155Z,3.10
2022-08-25T02:27:58.769Z,3.78
2022-08-25T02:33:00.582Z,2.95
2022-08-25T02:38:02.393Z,3.13
2022-08-25T02:43:03.947Z,3.13
2022-08-25T02:48:05.624Z,3.30
2022-08-25T02:53:07.889Z,3.50
2022-08-25T02:58:09.464Z,3.22
2022-08-25T03:03:10.970Z,3.05
2022-08-25T03:08:12.547Z,3.53
2022-08-25T03:13:14.182Z,3.58
2022-08-25T03:18:15.779Z,3.80
2022-08-25T03:23:18.782Z,3.65
2022-08-25T03:28:20.535Z,3.80
2022-08-25T03:33:28.265Z,3.30
2022-08-25T03:38:29.788Z,3.45
2022-08-25T03:43:31.644Z,4.13
2022-08-25T03:48:33.261Z,4.40
2022-08-25T03:53:34.843Z,3.88
2022-08-25T03:58:44.540Z,4.05
2022-08-25T04:03:47.714Z,4.13
2022-08-25T04:08:49.262Z,4.40
2022-08-25T04:13:52.697Z,4.45
2022-08-25T04:18:55.361Z,4.70
2022-08-25T04:23:58.237Z,4.43
2022-08-25T04:29:01.508Z,4.82
2022-08-25T04:34:04.304Z,4.80
2022-08-25T04:39:25.812Z,5.07
2022-08-25T04:44:27.856Z,5.38
2022-08-25T04:49:29.521Z,5.07
2022-08-25T04:54:32.521Z,5.75
2022-08-25T04:59:39.562Z,6.20
2022-08-25T05:04:41.447Z,6.50
2022-08-25T05:09:42.920Z,6.32
2022-08-25T05:14:44.426Z,6.72
2022-08-25T05:19:45.966Z,7.32
2022-08-25T05:24:47.475Z,7.35
2022-08-25T05:29:48.973Z,7.28
2022-08-25T05:34:50.646Z,7.32
2022-08-25T05:39:52.206Z,8.38
2022-08-25T05:44:55.045Z,8.73
2022-08-25T05:49:56.563Z,8.85
2022-08-25T05:54:58.490Z,8.85
2022-08-25T06:00:00.314Z,7.97
2022-08-25T06:05:02.077Z,9.05
2022-08-25T06:10:11.492Z,9.80
2022-08-25T06:20:22.190Z,8.98
2022-08-25T06:25:27.904Z,9.00
2022-08-25T06:30:29.507Z,9.25
2022-08-25T06:36:01.972Z,8.95
2022-08-25T06:47:57.124Z,9.65
2022-08-25T07:04:52.271Z,9.05
2022-08-25T07:10:04.751Z,8.60
2022-08-25T07:21:09.339Z,8.93
2022-08-25T07:26:41.568Z,7.35
2022-08-25T07:31:49.617Z,8.68
2022-08-25T07:36:51.434Z,8.40
2022-08-25T07:41:53.283Z,7.85
2022-08-25T07:46:55.441Z,7.82
2022-08-25T07:52:05.351Z,7.93
2022-08-25T07:57:08.826Z,7.55
2022-08-25T08:02:18.965Z,7.43
2022-08-25T08:07:42.074Z,6.43
2022-08-25T08:12:45.841Z,6.70
2022-08-25T08:17:47.436Z,6.97
2022-08-25T08:22:49.721Z,7.25
2022-08-25T08:27:51.458Z,6.03
2022-08-25T08:33:13.032Z,6.40
2022-08-25T08:38:20.860Z,5.60
2022-08-25T08:43:25.132Z,5.65
2022-08-25T08:48:58.414Z,5.55
2022-08-25T08:54:14.988Z,5.55
2022-08-25T08:59:22.113Z,5.25
2022-08-25T09:04:55.649Z,5.50
2022-08-25T09:09:57.969Z,5.20
2022-08-25T09:15:17.115Z,5.20
2022-08-25T09:20:54.671Z,5.20
2022-08-25T09:26:08.358Z,4.95
2022-08-25T09:31:26.435Z,4.70
2022-08-25T09:36:36.765Z,5.45
2022-08-25T09:41:56.218Z,5.30
2022-08-25T09:47:13.412Z,4.45
2022-08-25T09:52:36.474Z,5.07
2022-08-25T09:57:47.457Z,5.00
2022-08-25T10:03:22.538Z,4.63
2022-08-25T10:08:33.012Z,4.70
2022-08-25T10:13:37.318Z,4.63
2022-08-25T10:18:39.210Z,4.30
2022-08-25T10:23:47.309Z,4.72
2022-08-25T10:29:09.896Z,4.60
2022-08-25T10:34:29.789Z,5.05
2022-08-25T10:39:43.152Z,4.35
2022-08-25T10:45:43.592Z,4.10
2022-08-25T10:50:49.290Z,4.25
2022-08-25T10:56:21.509Z,4.57
2022-08-25T11:01:54.020Z,4.18
2022-08-25T11:07:10.296Z,3.75
2022-08-25T11:12:29.949Z,3.80
2022-08-25T11:17:50.096Z,3.40
2022-08-25T11:23:05.153Z,3.40
2022-08-25T11:28:22.322Z,3.08
2022-08-25T11:33:26.105Z,3.40
2022-08-25T11:38:55.395Z,2.95
2022-08-25T11:44:09.817Z,3.40
2022-08-25T11:49:49.304Z,3.70
2022-08-25T11:54:50.937Z,3.80
2022-08-25T11:59:53.272Z,3.40
2022-08-25T12:04:56.326Z,4.13
2022-08-25T12:10:04.035Z,3.80
2022-08-25T12:15:25.780Z,3.70
2022-08-25T12:20:55.348Z,3.90
2022-08-25T12:26:00.643Z,3.63
2022-08-25T12:31:17.640Z,3.80
2022-08-25T12:36:34.200Z,3.78
2022-08-25T12:41:50.984Z,3.72
2022-08-25T12:47:10.764Z,4.07
2022-08-25T12:52:27.803Z,3.78
2022-08-25T12:57:46.213Z,4.10
2022-08-25T13:08:22.488Z,3.72
2022-08-25T13:13:58.580Z,3.53
2022-08-25T13:19:04.733Z,3.70
2022-08-25T13:24:21.118Z,3.28
2022-08-25T13:29:40.777Z,3.90
2022-08-25T13:34:43.647Z,3.67
2022-08-25T13:39:56.321Z,4.15
2022-08-25T13:45:00.357Z,4.32
2022-08-25T13:50:27.162Z,3.80
2022-08-25T13:55:38.248Z,4.10
2022-08-25T14:01:47.873Z,3.80
2022-08-25T14:06:45.299Z,3.75
2022-08-25T14:11:56.487Z,3.92
2022-08-25T14:17:21.589Z,3.92
2022-08-25T14:22:28.136Z,4.40
2022-08-25T14:27:29.666Z,3.90
2022-08-25T14:32:31.251Z,3.63
2022-08-25T14:37:34.774Z,3.42
2022-08-25T14:42:36.307Z,3.90
2022-08-25T14:47:38.640Z,3.80
2022-08-25T14:52:42.060Z,4.10
2022-08-25T14:57:44.365Z,3.75
2022-08-25T15:02:49.017Z,4.30
2022-08-25T15:08:12.239Z,4.35
2022-08-25T15:13:14.640Z,4.22
2022-08-25T15:18:18.118Z,4.30
2022-08-25T15:23:21.825Z,3.80
2022-08-25T15:28:24.335Z,4.65
2022-08-25T15:33:28.113Z,3.70
2022-08-25T15:38:30.200Z,3.83
2022-08-25T15:43:32.013Z,3.92
2022-08-25T15:48:35.444Z,4.07
2022-08-25T15:53:37.000Z,4.03
2022-08-25T15:58:38.643Z,3.72
2022-08-25T16:03:52.175Z,4.30
2022-08-25T16:08:54.397Z,4.30
2022-08-25T16:13:57.091Z,4.30
2022-08-25T16:18:58.761Z,4.72
2022-08-25T16:24:07.198Z,3.90
2022-08-25T16:29:09.972Z,4.78
2022-08-25T16:34:11.739Z,4.30
2022-08-25T16:39:13.421Z,4.32
2022-08-25T16:44:15.769Z,4.32
2022-08-25T16:49:17.425Z,4.40
2022-08-25T16:54:37.668Z,4.45
2022-08-25T16:59:39.519Z,5.00
2022-08-25T17:04:41.050Z,3.90
2022-08-25T17:09:42.563Z,4.70
2022-08-25T17:14:44.059Z,4.82
2022-08-25T17:19:48.061Z,4.70
2022-08-25T17:24:59.325Z,4.28
2022-08-25T17:30:03.790Z,4.65
2022-08-25T17:35:05.971Z,4.28
2022-08-25T17:40:10.040Z,4.65
2022-08-25T17:45:12.683Z,4.47
2022-08-25T17:50:15.003Z,4.65
2022-08-25T17:55:24.586Z,4.60
2022-08-25T18:00:26.625Z,5.43
2022-08-25T18:05:28.133Z,4.45
2022-08-25T18:10:29.800Z,4.60
2022-08-25T18:15:31.301Z,4.70
2022-08-25T18:20:33.343Z,5.00
2022-08-25T18:25:34.867Z,4.50
2022-08-25T18:30:36.963Z,5.18
2022-08-25T18:35:38.674Z,4.18
2022-08-25T18:40:40.705Z,4.50
2022-08-25T18:45:47.831Z,4.60
2022-08-25T18:50:51.862Z,4.63
2022-08-25T18:55:54.487Z,4.80
2022-08-25T19:00:56.786Z,4.55
2022-08-25T19:05:58.357Z,5.35
2022-08-25T19:10:59.859Z,5.30
2022-08-25T19:16:09.691Z,4.75
2022-08-25T19:21:11.783Z,5.28
2022-08-25T19:26:16.926Z,4.90
2022-08-25T19:31:22.463Z,4.93
2022-08-25T19:36:28.148Z,5.32
2022-08-25T19:41:31.161Z,5.38
2022-08-25T19:46:37.248Z,4.78
2022-08-25T19:51:44.352Z,5.63
2022-08-25T19:56:54.244Z,5.03
2022-08-25T20:01:57.526Z,5.03
2022-08-25T20:06:59.750Z,5.00
2022-08-25T20:12:01.438Z,4.57
2022-08-25T20:17:04.691Z,5.68
2022-08-25T20:22:25.936Z,4.53
2022-08-25T20:27:41.467Z,5.35
2022-08-25T20:32:42.970Z,5.60
2022-08-25T20:37:47.321Z,5.28
2022-08-25T20:42:49.134Z,5.13
2022-08-25T20:47:51.696Z,4.47
2022-08-25T20:52:54.908Z,5.38
2022-08-25T20:57:58.276Z,5.68
2022-08-25T21:03:00.276Z,5.10
2022-08-25T21:08:02.203Z,5.57
2022-08-25T21:13:03.696Z,5.05
2022-08-25T21:18:06.801Z,5.50
2022-08-25T21:23:08.674Z,5.68
2022-08-25T21:28:10.644Z,5.80
2022-08-25T21:33:12.141Z,5.40
2022-08-25T21:38:13.695Z,5.22
2022-08-25T21:43:18.581Z,6.53
2022-08-25T21:48:20.189Z,5.25
2022-08-25T21:53:21.756Z,5.57
2022-08-25T21:58:23.433Z,5.15
2022-08-25T22:03:25.161Z,5.50
2022-08-25T22:08:30.757Z,6.35
2022-08-25T22:13:34.247Z,6.05
2022-08-25T22:18:36.525Z,5.40
2022-08-25T22:23:40.036Z,5.20
2022-08-25T22:28:46.595Z,5.53
2022-08-25T22:33:48.693Z,6.07
2022-08-25T22:38:51.235Z,5.75
2022-08-25T22:43:53.142Z,5.72
2022-08-25T22:48:55.979Z,5.53
2022-08-25T22:53:59.502Z,6.70
2022-08-25T22:59:05.354Z,4.95
2022-08-25T23:04:08.085Z,6.05
2022-08-25T23:09:11.165Z,5.50
2022-08-25T23:14:12.674Z,5.82
2022-08-25T23:19:14.716Z,5.82
2022-08-25T23:24:29.175Z,5.78
2022-08-25T23:29:34.170Z,5.95
2022-08-25T23:34:38.102Z,5.63
2022-08-25T23:39:45.295Z,5.70
2022-08-25T23:44:48.354Z,6.35
2022-08-25T23:49:49.868Z,6.13
2022-08-25T23:54:51.455Z,6.63
2022-08-25T23:59:53.328Z,6.15
